createdAt,value
2018-02-26T00:00:32.331Z,0.00
2018-02-26T00:02:03.897Z,0.00
2018-02-26T00:03:35.712Z,0.00
2018-02-26T00:05:07.529Z,0.00
2018-02-26T00:06:39.498Z,0.00
2018-02-26T00:08:11.158Z,0.00
2018-02-26T00:09:42.973Z,0.00
2018-02-26T00:11:14.790Z,0.00
2018-02-26T00:12:46.606Z,0.00
2018-02-26T00:14:18.421Z,0.00
2018-02-26T00:15:50.236Z,0.00
2018-02-26T00:17:22.186Z,0.00
2018-02-26T00:18:54.117Z,0.00
2018-02-26T00:20:25.724Z,0.00
2018-02-26T00:21:57.498Z,0.00
2018-02-26T00:23:29.313Z,0.00
2018-02-26T00:25:01.127Z,0.00
2018-02-26T00:26:32.954Z,0.00
2018-02-26T00:28:04.759Z,0.00
2018-02-26T00:29:36.573Z,0.00
2018-02-26T00:31:08.388Z,0.00
2018-02-26T00:32:40.204Z,0.00
2018-02-26T00:34:12.018Z,0.00
2018-02-26T00:35:43.834Z,0.00
2018-02-26T00:37:15.750Z,0.00
2018-02-26T00:38:47.465Z,0.00
2018-02-26T00:40:19.279Z,0.00
2018-02-26T00:41:51.094Z,0.00
2018-02-26T00:43:22.910Z,0.00
2018-02-26T00:44:54.725Z,0.00
2018-02-26T00:46:26.540Z,0.00
2018-02-26T00:47:58.355Z,0.00
2018-02-26T00:49:30.320Z,0.00
2018-02-26T00:51:01.995Z,0.00
2018-02-26T00:52:33.801Z,0.00
2018-02-26T00:54:05.617Z,0.00
2018-02-26T00:55:37.530Z,0.00
2018-02-26T00:57:09.246Z,0.00
2018-02-26T00:58:41.061Z,0.00
2018-02-26T01:00:12.876Z,0.00
2018-02-26T01:01:44.692Z,0.00
2018-02-26T01:03:16.505Z,0.00
2018-02-26T01:04:48.321Z,0.00
2018-02-26T01:06:20.135Z,0.00
2018-02-26T01:07:52.100Z,0.00
2018-02-26T01:09:23.765Z,0.00
2018-02-26T01:10:55.592Z,0.00
2018-02-26T01:12:27.395Z,0.00
2018-02-26T01:13:59.311Z,0.00
2018-02-26T01:15:31.025Z,0.00
2018-02-26T01:17:02.840Z,0.00
2018-02-26T01:18:34.655Z,0.00
2018-02-26T01:20:06.620Z,0.00
2018-02-26T01:21:38.286Z,0.00
2018-02-26T01:23:10.100Z,0.00
2018-02-26T01:24:41.920Z,0.00
2018-02-26T01:26:13.730Z,0.00
2018-02-26T01:27:45.545Z,0.00
2018-02-26T01:29:17.361Z,0.00
2018-02-26T01:30:49.176Z,0.00
2018-02-26T01:32:21.091Z,0.00
2018-02-26T01:33:52.805Z,0.00
2018-02-26T01:35:24.621Z,0.00
2018-02-26T01:36:56.436Z,0.00
2018-02-26T01:38:28.401Z,0.00
2018-02-26T01:40:00.066Z,0.00
2018-02-26T01:41:31.881Z,0.00
2018-02-26T01:43:03.696Z,0.00
2018-02-26T01:44:35.531Z,0.00
2018-02-26T01:46:07.325Z,0.00
2018-02-26T01:47:39.146Z,0.00
2018-02-26T01:49:10.954Z,0.00
2018-02-26T01:50:43.020Z,0.00
2018-02-26T01:52:14.587Z,0.00
2018-02-26T01:53:46.398Z,0.00
2018-02-26T01:55:18.213Z,0.00
2018-02-26T01:56:50.028Z,0.00
2018-02-26T01:58:21.842Z,0.00
2018-02-26T01:59:53.657Z,0.00
2018-02-26T02:01:25.471Z,0.00
2018-02-26T02:02:57.287Z,0.00
2018-02-26T02:04:29.101Z,0.00
2018-02-26T02:06:00.916Z,0.00
2018-02-26T02:07:32.731Z,0.00
2018-02-26T02:09:04.802Z,0.00
2018-02-26T02:10:36.359Z,0.00
2018-02-26T02:12:08.175Z,0.00
2018-02-26T02:13:39.989Z,0.00
2018-02-26T02:15:11.805Z,0.00
2018-02-26T02:16:43.620Z,0.00
2018-02-26T02:18:15.434Z,0.00
2018-02-26T02:19:47.252Z,0.00
2018-02-26T02:21:19.214Z,0.00
2018-02-26T02:22:50.878Z,0.00
2018-02-26T02:24:22.696Z,0.00
2018-02-26T02:25:54.508Z,0.00
2018-02-26T02:27:26.423Z,0.00
2018-02-26T02:28:58.161Z,0.00
2018-02-26T02:30:29.953Z,0.00
2018-02-26T02:32:01.770Z,0.00
2018-02-26T02:33:33.582Z,0.00
2018-02-26T02:35:05.397Z,0.00
2018-02-26T02:36:37.212Z,0.00
2018-02-26T02:38:09.027Z,0.00
2018-02-26T02:39:40.841Z,0.00
2018-02-26T02:41:12.667Z,0.00
2018-02-26T02:42:44.474Z,0.00
2018-02-26T02:44:16.287Z,0.00
2018-02-26T02:45:48.202Z,0.00
2018-02-26T02:47:19.919Z,0.00
2018-02-26T02:48:51.732Z,0.00
2018-02-26T02:50:23.547Z,0.00
2018-02-26T02:51:55.514Z,0.00
2018-02-26T02:53:27.177Z,0.00
2018-02-26T02:54:58.992Z,0.00
2018-02-26T02:56:30.805Z,0.00
2018-02-26T02:58:02.621Z,0.00
2018-02-26T02:59:34.435Z,0.00
2018-02-26T03:01:06.251Z,0.00
2018-02-26T03:02:38.065Z,0.00
2018-02-26T03:04:09.980Z,0.00
2018-02-26T03:05:41.696Z,0.00
2018-02-26T03:07:13.510Z,0.00
2018-02-26T03:08:45.324Z,0.00
2018-02-26T03:10:17.289Z,0.00
2018-02-26T03:11:48.952Z,0.00
2018-02-26T03:13:20.768Z,0.00
2018-02-26T03:14:52.582Z,0.00
2018-02-26T03:16:24.397Z,0.00
2018-02-26T03:17:56.212Z,0.00
2018-02-26T03:19:28.026Z,0.00
2018-02-26T03:20:59.845Z,0.00
2018-02-26T03:22:31.907Z,0.00
2018-02-26T03:24:03.470Z,0.00
2018-02-26T03:25:35.284Z,0.00
2018-02-26T03:27:07.099Z,0.00
2018-02-26T03:28:38.914Z,0.00
2018-02-26T03:30:10.729Z,0.00
2018-02-26T03:31:42.544Z,0.00
2018-02-26T03:33:14.357Z,0.00
2018-02-26T03:34:46.179Z,0.00
2018-02-26T03:36:17.987Z,0.00
2018-02-26T03:37:49.801Z,0.00
2018-02-26T03:39:21.616Z,0.00
2018-02-26T03:40:53.684Z,0.00
2018-02-26T03:42:25.245Z,0.00
2018-02-26T03:43:57.059Z,0.00
2018-02-26T03:45:28.874Z,0.00
2018-02-26T03:47:00.839Z,0.00
2018-02-26T03:48:32.503Z,0.00
2018-02-26T03:50:04.318Z,0.00
2018-02-26T03:51:36.132Z,0.00
2018-02-26T03:53:08.096Z,0.00
2018-02-26T03:54:39.761Z,0.00
2018-02-26T03:56:11.576Z,0.00
2018-02-26T03:57:43.390Z,0.00
2018-02-26T03:59:15.304Z,0.00
2018-02-26T04:00:47.019Z,0.00
2018-02-26T04:02:18.834Z,0.00
2018-02-26T04:03:50.648Z,0.00
2018-02-26T04:05:22.463Z,0.00
2018-02-26T04:06:54.277Z,0.00
2018-02-26T04:08:26.100Z,0.00
2018-02-26T04:09:57.906Z,0.00
2018-02-26T04:11:29.871Z,0.00
2018-02-26T04:13:01.535Z,0.00
2018-02-26T04:14:33.353Z,0.00
2018-02-26T04:16:05.164Z,0.00
2018-02-26T04:17:37.080Z,0.00
2018-02-26T04:19:08.794Z,0.00
2018-02-26T04:20:40.609Z,0.00
2018-02-26T04:22:12.423Z,0.00
2018-02-26T04:23:44.388Z,0.00
2018-02-26T04:25:16.054Z,0.00
2018-02-26T04:26:47.871Z,0.00
2018-02-26T04:28:19.684Z,0.00
2018-02-26T04:29:51.498Z,0.00
2018-02-26T04:31:23.312Z,0.00
2018-02-26T04:32:55.129Z,0.00
2018-02-26T04:34:26.943Z,0.00
2018-02-26T04:35:58.859Z,0.00
2018-02-26T04:37:30.573Z,0.00
2018-02-26T04:39:02.389Z,0.00
2018-02-26T04:40:34.206Z,0.00
2018-02-26T04:42:06.169Z,0.00
2018-02-26T04:43:37.836Z,0.00
2018-02-26T04:45:09.650Z,0.00
2018-02-26T04:46:41.466Z,0.00
2018-02-26T04:48:13.280Z,0.00
2018-02-26T04:49:45.096Z,0.00
2018-02-26T04:51:16.920Z,0.00
2018-02-26T04:52:48.727Z,0.00
2018-02-26T04:54:20.792Z,0.00
2018-02-26T04:55:52.357Z,0.00
2018-02-26T04:57:24.176Z,0.00
2018-02-26T04:58:55.989Z,0.00
2018-02-26T05:00:27.805Z,0.00
2018-02-26T05:01:59.620Z,0.00
2018-02-26T05:03:31.435Z,0.00
2018-02-26T05:05:03.253Z,0.00
2018-02-26T05:06:35.066Z,0.00
2018-02-26T05:08:06.882Z,0.00
2018-02-26T05:09:38.697Z,0.00
2018-02-26T05:11:10.513Z,0.00
2018-02-26T05:12:42.428Z,0.00
2018-02-26T05:14:14.144Z,0.00
2018-02-26T05:15:45.959Z,0.00
2018-02-26T05:17:17.775Z,0.00
2018-02-26T05:18:49.741Z,0.00
2018-02-26T05:20:21.405Z,0.00
2018-02-26T05:21:53.221Z,0.00
2018-02-26T05:23:25.037Z,0.00
2018-02-26T05:24:57.003Z,0.00
2018-02-26T05:26:28.667Z,0.00
2018-02-26T05:28:00.485Z,0.00
2018-02-26T05:29:32.298Z,0.00
2018-02-26T05:31:04.214Z,0.00
2018-02-26T05:32:35.929Z,0.00
2018-02-26T05:34:07.745Z,0.00
2018-02-26T05:35:39.560Z,0.00
2018-02-26T05:37:11.377Z,0.00
2018-02-26T05:38:43.193Z,0.00
2018-02-26T05:40:15.007Z,0.00
2018-02-26T05:41:46.822Z,0.00
2018-02-26T05:43:18.788Z,0.00
2018-02-26T05:44:50.457Z,0.00
2018-02-26T05:46:22.269Z,0.00
2018-02-26T05:47:54.085Z,0.00
2018-02-26T05:49:26.001Z,0.00
2018-02-26T05:50:57.717Z,0.00
2018-02-26T05:52:29.536Z,0.00
2018-02-26T05:54:01.348Z,0.00
2018-02-26T05:55:33.314Z,0.00
2018-02-26T05:57:04.979Z,0.00
2018-02-26T05:58:36.797Z,0.00
2018-02-26T06:00:08.613Z,0.00
2018-02-26T06:01:40.428Z,0.00
2018-02-26T06:03:12.243Z,0.00
2018-02-26T06:04:44.060Z,0.00
2018-02-26T06:06:15.875Z,0.00
2018-02-26T06:07:47.792Z,0.00
2018-02-26T06:09:19.508Z,0.00
2018-02-26T06:10:51.323Z,0.00
2018-02-26T06:12:23.150Z,0.00
2018-02-26T06:13:55.105Z,0.00
2018-02-26T06:15:26.818Z,0.00
2018-02-26T06:16:58.586Z,0.00
2018-02-26T06:18:30.402Z,0.00
2018-02-26T06:20:02.368Z,0.00
2018-02-26T06:21:34.074Z,0.00
2018-02-26T06:23:05.848Z,0.00
2018-02-26T06:24:37.664Z,0.00
2018-02-26T06:26:09.730Z,0.00
2018-02-26T06:27:41.296Z,0.00
2018-02-26T06:29:13.112Z,0.00
2018-02-26T06:30:44.927Z,0.00
2018-02-26T06:32:16.743Z,0.00
2018-02-26T06:33:48.558Z,0.00
2018-02-26T06:35:20.375Z,0.00
2018-02-26T06:36:52.190Z,0.00
2018-02-26T06:38:24.006Z,0.00
2018-02-26T06:39:55.821Z,0.00
2018-02-26T06:41:27.637Z,0.00
2018-02-26T06:42:59.453Z,0.00
2018-02-26T06:44:31.820Z,0.00
2018-02-26T06:46:03.084Z,0.00
2018-02-26T06:47:34.899Z,0.00
2018-02-26T06:49:06.714Z,0.00
2018-02-26T06:50:38.530Z,0.00
2018-02-26T06:52:10.345Z,0.00
2018-02-26T06:53:42.160Z,0.00
2018-02-26T06:55:13.975Z,0.00
2018-02-26T06:56:45.940Z,0.00
2018-02-26T06:58:17.619Z,0.00
2018-02-26T06:59:49.423Z,0.00
2018-02-26T07:01:21.234Z,0.00
2018-02-26T07:02:53.150Z,0.00
2018-02-26T07:04:24.862Z,0.00
2018-02-26T07:05:56.679Z,0.00
2018-02-26T07:07:28.492Z,0.00
2018-02-26T07:09:00.306Z,0.00
2018-02-26T07:10:32.122Z,0.00
2018-02-26T07:12:03.937Z,0.00
2018-02-26T07:13:35.752Z,0.00
2018-02-26T07:15:07.717Z,0.00
2018-02-26T07:16:39.381Z,0.00
2018-02-26T07:18:11.196Z,0.00
2018-02-26T07:19:43.013Z,0.00
2018-02-26T07:21:14.978Z,0.00
2018-02-26T07:22:46.642Z,0.00
2018-02-26T07:24:18.484Z,0.00
2018-02-26T07:25:50.273Z,0.00
2018-02-26T07:27:22.239Z,0.00
2018-02-26T07:28:53.903Z,0.00
2018-02-26T07:30:25.719Z,0.00
2018-02-26T07:31:57.535Z,0.00
2018-02-26T07:33:29.349Z,0.00
2018-02-26T07:35:01.166Z,0.00
2018-02-26T07:36:32.981Z,0.00
2018-02-26T07:38:04.797Z,0.00
2018-02-26T07:39:36.712Z,0.00
2018-02-26T07:41:08.427Z,0.00
2018-02-26T07:42:40.252Z,0.00
2018-02-26T07:44:12.060Z,0.00
2018-02-26T07:45:44.025Z,0.00
2018-02-26T07:47:15.690Z,0.00
2018-02-26T07:48:47.505Z,0.00
2018-02-26T07:50:19.322Z,0.00
2018-02-26T07:51:51.141Z,0.00
2018-02-26T07:53:22.953Z,0.00
2018-02-26T07:54:54.769Z,0.00
2018-02-26T07:56:26.585Z,0.00
2018-02-26T07:57:58.651Z,0.00
2018-02-26T07:59:30.217Z,0.00
2018-02-26T08:01:02.033Z,0.00
2018-02-26T08:02:33.848Z,0.00
2018-02-26T08:04:05.814Z,0.00
2018-02-26T08:05:37.481Z,0.00
2018-02-26T08:07:09.295Z,0.00
2018-02-26T08:08:41.111Z,0.00
2018-02-26T08:10:12.927Z,0.00
2018-02-26T08:11:44.742Z,0.00
2018-02-26T08:13:16.558Z,0.00
2018-02-26T08:14:48.372Z,0.00
2018-02-26T08:16:20.441Z,0.00
2018-02-26T08:17:52.003Z,0.00
2018-02-26T08:19:23.819Z,0.00
2018-02-26T08:20:55.641Z,0.00
2018-02-26T08:22:27.449Z,0.00
2018-02-26T08:23:59.264Z,0.00
2018-02-26T08:25:31.078Z,0.00
2018-02-26T08:27:02.894Z,0.00
2018-02-26T08:28:34.859Z,0.00
2018-02-26T08:30:06.538Z,0.00
2018-02-26T08:31:38.338Z,0.00
2018-02-26T08:33:10.153Z,0.00
2018-02-26T08:34:42.068Z,0.00
2018-02-26T08:36:13.783Z,4.00
2018-02-26T08:37:45.598Z,0.00
2018-02-26T08:39:17.413Z,4.00
2018-02-26T08:40:49.231Z,4.00
2018-02-26T08:42:21.042Z,8.00
2018-02-26T08:43:52.886Z,12.00
2018-02-26T08:45:24.670Z,20.00
2018-02-26T08:46:56.636Z,24.00
2018-02-26T08:48:28.299Z,36.00
2018-02-26T08:50:00.115Z,48.00
2018-02-26T08:51:31.929Z,68.00
2018-02-26T08:53:04.129Z,92.00
2018-02-26T08:54:35.563Z,120.00
2018-02-26T08:56:07.373Z,160.00
2018-02-26T08:57:39.189Z,208.00
2018-02-26T08:59:11.152Z,244.00
2018-02-26T09:00:42.816Z,280.00
2018-02-26T09:02:14.631Z,332.00
2018-02-26T09:03:46.446Z,412.00
2018-02-26T09:05:18.265Z,472.00
2018-02-26T09:06:50.075Z,516.00
2018-02-26T09:08:21.889Z,552.00
2018-02-26T09:09:53.705Z,612.00
2018-02-26T09:11:25.620Z,700.00
2018-02-26T09:12:57.334Z,840.00
2018-02-26T09:14:29.153Z,1000.00
2018-02-26T09:16:00.964Z,1128.00
2018-02-26T09:17:32.779Z,1304.00
2018-02-26T09:19:04.594Z,1584.00
2018-02-26T09:20:36.409Z,1680.00
2018-02-26T09:22:08.224Z,1672.00
2018-02-26T09:23:40.200Z,2024.00
2018-02-26T09:25:11.854Z,2328.00
2018-02-26T09:26:43.669Z,2868.00
2018-02-26T09:28:15.484Z,2916.00
2018-02-26T09:29:47.549Z,2988.00
2018-02-26T09:31:19.115Z,3460.00
2018-02-26T09:32:50.929Z,3888.00
2018-02-26T09:34:22.744Z,4492.00
2018-02-26T09:35:54.561Z,4664.00
2018-02-26T09:37:26.375Z,4260.00
2018-02-26T09:38:58.190Z,4740.00
2018-02-26T09:40:30.006Z,4392.00
2018-02-26T09:42:01.830Z,4484.00
2018-02-26T09:43:33.638Z,4596.00
2018-02-26T09:45:05.452Z,5420.00
2018-02-26T09:46:37.268Z,7836.00
2018-02-26T09:48:09.184Z,7720.00
2018-02-26T09:49:40.995Z,5824.00
2018-02-26T09:51:12.714Z,5588.00
2018-02-26T09:52:44.531Z,5588.00
2018-02-26T09:54:16.346Z,6292.00
2018-02-26T09:55:48.163Z,7348.00
2018-02-26T09:57:19.977Z,7700.00
2018-02-26T09:58:51.792Z,7320.00
2018-02-26T10:00:23.760Z,6304.00
2018-02-26T10:01:55.424Z,6516.00
2018-02-26T10:03:27.240Z,6052.00
2018-02-26T10:04:59.055Z,6780.00
2018-02-26T10:06:30.975Z,6532.00
2018-02-26T10:08:02.687Z,7720.00
2018-02-26T10:09:34.502Z,7912.00
2018-02-26T10:11:06.318Z,9760.00
2018-02-26T10:12:38.136Z,10216.00
2018-02-26T10:14:09.951Z,9920.00
2018-02-26T10:15:41.767Z,11632.00
2018-02-26T10:17:13.583Z,12892.00
2018-02-26T10:18:45.399Z,11504.00
2018-02-26T10:20:17.246Z,12232.00
2018-02-26T10:21:49.032Z,13636.00
2018-02-26T10:23:20.850Z,12668.00
2018-02-26T10:24:52.816Z,12996.00
2018-02-26T10:26:24.484Z,13560.00
2018-02-26T10:27:56.301Z,14820.00
2018-02-26T10:29:28.117Z,16892.00
2018-02-26T10:30:59.935Z,15836.00
2018-02-26T10:34:03.572Z,16020.00
2018-02-26T10:35:35.389Z,15664.00
2018-02-26T10:37:07.216Z,16860.00
2018-02-26T10:38:39.024Z,21376.00
2018-02-26T10:40:10.842Z,22528.00
2018-02-26T10:41:42.661Z,22784.00
2018-02-26T10:43:14.579Z,22368.00
2018-02-26T10:44:46.784Z,20928.00
2018-02-26T10:46:18.115Z,21024.00
2018-02-26T10:47:49.937Z,20288.00
2018-02-26T10:50:53.573Z,21088.00
2018-02-26T10:52:25.390Z,19520.00
2018-02-26T10:53:57.209Z,16960.00
2018-02-26T10:55:29.028Z,18112.00
2018-02-26T10:57:00.848Z,17824.00
2018-02-26T10:58:32.666Z,19488.00
2018-02-26T11:00:04.484Z,19552.00
2018-02-26T11:01:36.304Z,21024.00
2018-02-26T11:03:08.221Z,20864.00
2018-02-26T11:04:39.940Z,21344.00
2018-02-26T11:07:43.578Z,21216.00
2018-02-26T11:09:15.969Z,20672.00
2018-02-26T11:10:47.216Z,21920.00
2018-02-26T11:12:19.394Z,22144.00
2018-02-26T11:13:50.853Z,22080.00
2018-02-26T11:15:22.671Z,21312.00
2018-02-26T11:16:54.492Z,21408.00
2018-02-26T11:18:26.310Z,20896.00
2018-02-26T11:19:58.129Z,21472.00
2018-02-26T11:21:30.049Z,24000.00
2018-02-26T11:23:01.971Z,25632.00
2018-02-26T11:24:33.588Z,25888.00
2018-02-26T11:26:05.412Z,24768.00
2018-02-26T11:27:37.227Z,23872.00
2018-02-26T11:29:09.098Z,21472.00
2018-02-26T11:30:40.866Z,19680.00
2018-02-26T11:32:12.685Z,20480.00
2018-02-26T11:33:44.604Z,24128.00
2018-02-26T11:35:16.324Z,25472.00
2018-02-26T11:36:48.145Z,25856.00
2018-02-26T11:38:19.966Z,27136.00
2018-02-26T11:39:51.962Z,28992.00
2018-02-26T11:41:23.604Z,31232.00
2018-02-26T11:42:55.728Z,32224.00
2018-02-26T11:44:28.806Z,32320.00
2018-02-26T11:45:59.064Z,33984.00
2018-02-26T11:47:30.884Z,35296.00
2018-02-26T11:49:02.708Z,32992.00
2018-02-26T11:50:34.557Z,31840.00
2018-02-26T11:52:06.346Z,34176.00
2018-02-26T11:53:38.168Z,36672.00
2018-02-26T11:55:09.988Z,33184.00
2018-02-26T11:58:13.815Z,30624.00
2018-02-26T12:01:17.454Z,29952.00
2018-02-26T12:02:49.091Z,30592.00
2018-02-26T12:04:20.929Z,30112.00
2018-02-26T12:05:52.752Z,30080.00
2018-02-26T12:07:24.583Z,27648.00
2018-02-26T12:08:56.375Z,28576.00
2018-02-26T12:10:28.195Z,29792.00
2018-02-26T12:12:00.018Z,29184.00
2018-02-26T12:13:31.837Z,29312.00
2018-02-26T12:15:03.690Z,30432.00
2018-02-26T12:16:35.587Z,31104.00
2018-02-26T12:18:07.300Z,32256.00
2018-02-26T12:19:39.121Z,33696.00
2018-02-26T12:21:10.942Z,32800.00
2018-02-26T12:22:42.815Z,33152.00
2018-02-26T12:24:14.630Z,31456.00
2018-02-26T12:25:46.413Z,31424.00
2018-02-26T12:27:18.249Z,25312.00
2018-02-26T12:28:50.052Z,33472.00
2018-02-26T12:30:21.868Z,34688.00
2018-02-26T12:31:53.892Z,35328.00
2018-02-26T12:33:25.612Z,34976.00
2018-02-26T12:34:57.940Z,34752.00
2018-02-26T12:36:29.157Z,36320.00
2018-02-26T12:38:00.978Z,38016.00
2018-02-26T12:39:32.797Z,39168.00
2018-02-26T12:41:04.619Z,40832.00
2018-02-26T12:42:36.486Z,40672.00
2018-02-26T12:44:08.264Z,37248.00
2018-02-26T12:45:40.085Z,35424.00
2018-02-26T12:47:11.906Z,35072.00
2018-02-26T12:48:43.932Z,33184.00
2018-02-26T12:50:15.552Z,33152.00
2018-02-26T12:51:47.387Z,33088.00
2018-02-26T12:53:19.296Z,33728.00
2018-02-26T12:54:51.018Z,34720.00
2018-02-26T12:56:22.840Z,33536.00
2018-02-26T12:57:54.661Z,35296.00
2018-02-26T12:59:26.485Z,34624.00
2018-02-26T13:00:58.309Z,34080.00
2018-02-26T13:02:30.129Z,34656.00
2018-02-26T13:04:01.952Z,34880.00
2018-02-26T13:07:05.596Z,35392.00
2018-02-26T13:08:37.723Z,36992.00
2018-02-26T13:10:09.243Z,38080.00
2018-02-26T13:11:41.065Z,35424.00
2018-02-26T13:13:12.988Z,31776.00
2018-02-26T13:14:44.723Z,26400.00
2018-02-26T13:16:16.543Z,28864.00
2018-02-26T13:17:48.366Z,32000.00
2018-02-26T13:19:20.201Z,33888.00
2018-02-26T13:20:52.013Z,35712.00
2018-02-26T13:22:23.835Z,38272.00
2018-02-26T13:23:55.658Z,39776.00
2018-02-26T13:25:27.481Z,39296.00
2018-02-26T13:26:59.303Z,37248.00
2018-02-26T13:28:31.175Z,33568.00
2018-02-26T13:30:02.982Z,31456.00
2018-02-26T13:31:34.872Z,30816.00
2018-02-26T13:33:06.595Z,30304.00
2018-02-26T13:34:38.440Z,28160.00
2018-02-26T13:36:10.285Z,26432.00
2018-02-26T13:37:42.066Z,24608.00
2018-02-26T13:39:13.888Z,24096.00
2018-02-26T13:40:45.805Z,24800.00
2018-02-26T13:42:17.532Z,25056.00
2018-02-26T13:43:49.358Z,24544.00
2018-02-26T13:45:21.178Z,24192.00
2018-02-26T13:46:53.001Z,24608.00
2018-02-26T13:48:24.824Z,25664.00
2018-02-26T13:49:56.747Z,28000.00
2018-02-26T13:51:28.482Z,29760.00
2018-02-26T13:53:00.301Z,32000.00
2018-02-26T13:54:32.121Z,32448.00
2018-02-26T13:56:03.949Z,33664.00
2018-02-26T13:57:35.764Z,34432.00
2018-02-26T13:59:07.587Z,31616.00
2018-02-26T14:00:39.430Z,28512.00
2018-02-26T14:02:11.242Z,26592.00
2018-02-26T14:03:43.059Z,26336.00
2018-02-26T14:05:14.881Z,27424.00
2018-02-26T14:06:46.705Z,25600.00
2018-02-26T14:08:18.715Z,22528.00
2018-02-26T14:09:50.361Z,20416.00
2018-02-26T14:11:22.176Z,21600.00
2018-02-26T14:12:54.248Z,21888.00
2018-02-26T14:15:57.647Z,17632.00
2018-02-26T14:17:29.471Z,17000.00
2018-02-26T14:19:01.329Z,16492.00
2018-02-26T14:20:33.119Z,16540.00
2018-02-26T14:22:04.942Z,19136.00
2018-02-26T14:23:36.814Z,28384.00
2018-02-26T14:25:08.619Z,33888.00
2018-02-26T14:26:42.859Z,39360.00
2018-02-26T14:28:12.443Z,38176.00
2018-02-26T14:29:44.056Z,41792.00
2018-02-26T14:31:15.957Z,46944.00
2018-02-26T14:32:47.705Z,45184.00
2018-02-26T14:34:19.680Z,49152.00
2018-02-26T14:35:51.473Z,49984.00
2018-02-26T14:37:23.178Z,55264.00
2018-02-26T14:38:55.001Z,71392.00
2018-02-26T14:40:27.193Z,58688.00
2018-02-26T14:41:58.651Z,52288.00
2018-02-26T14:43:30.477Z,51232.00
2018-02-26T14:45:02.303Z,49600.00
2018-02-26T14:46:34.228Z,52832.00
2018-02-26T14:48:05.986Z,51584.00
2018-02-26T14:51:09.609Z,45888.00
2018-02-26T14:52:41.733Z,52000.00
2018-02-26T14:54:13.256Z,52448.00
2018-02-26T14:55:45.082Z,49312.00
2018-02-26T14:57:16.906Z,40864.00
2018-02-26T14:58:48.738Z,41696.00
2018-02-26T15:00:20.559Z,36928.00
2018-02-26T15:01:52.385Z,32672.00
2018-02-26T15:03:24.210Z,28160.00
2018-02-26T15:04:56.137Z,30272.00
2018-02-26T15:06:27.861Z,41280.00
2018-02-26T15:07:59.892Z,48576.00
2018-02-26T15:09:32.090Z,63200.00
2018-02-26T15:11:03.338Z,46848.00
2018-02-26T15:12:35.164Z,40960.00
2018-02-26T15:14:07.025Z,37024.00
2018-02-26T15:15:38.815Z,37632.00
2018-02-26T15:17:10.640Z,42016.00
2018-02-26T15:18:42.467Z,44576.00
2018-02-26T15:20:14.292Z,42528.00
2018-02-26T15:21:46.123Z,44672.00
2018-02-26T15:23:18.043Z,49280.00
2018-02-26T15:26:21.595Z,44768.00
2018-02-26T15:27:53.724Z,40288.00
2018-02-26T15:29:25.248Z,50048.00
2018-02-26T15:30:57.072Z,54976.00
2018-02-26T15:32:28.897Z,58624.00
2018-02-26T15:34:00.724Z,55232.00
2018-02-26T15:35:32.550Z,53952.00
2018-02-26T15:37:04.399Z,57792.00
2018-02-26T15:38:36.226Z,49856.00
2018-02-26T15:40:08.055Z,53536.00
2018-02-26T15:41:39.955Z,47680.00
2018-02-26T15:43:11.884Z,40992.00
2018-02-26T15:44:43.508Z,46528.00
2018-02-26T15:46:15.334Z,53792.00
2018-02-26T15:47:47.160Z,55040.00
2018-02-26T15:49:18.986Z,53728.00
2018-02-26T15:50:50.812Z,48224.00
2018-02-26T15:52:22.639Z,50016.00
2018-02-26T15:53:54.465Z,60736.00
2018-02-26T15:55:26.329Z,61952.00
2018-02-26T15:56:58.116Z,68736.00
2018-02-26T15:58:29.943Z,117472.00
2018-02-26T16:01:33.976Z,114656.00
2018-02-26T16:03:05.727Z,119584.00
2018-02-26T16:04:37.251Z,76352.00
2018-02-26T16:06:09.079Z,45600.00
2018-02-26T16:07:40.908Z,45760.00
2018-02-26T16:09:12.736Z,49600.00
2018-02-26T16:10:44.565Z,60000.00
2018-02-26T16:12:16.393Z,103808.00
2018-02-26T16:13:48.222Z,128800.00
2018-02-26T16:15:20.050Z,119808.00
2018-02-26T16:16:51.880Z,64448.00
2018-02-26T16:18:23.910Z,86208.00
2018-02-26T16:19:55.638Z,63872.00
2018-02-26T16:21:27.365Z,69024.00
2018-02-26T16:22:59.193Z,62688.00
2018-02-26T16:24:31.028Z,67776.00
2018-02-26T16:26:02.851Z,70816.00
2018-02-26T16:27:34.677Z,70688.00
2018-02-26T16:29:06.505Z,75296.00
2018-02-26T16:30:38.350Z,88544.00
2018-02-26T16:32:10.170Z,66944.00
2018-02-26T16:33:41.995Z,68736.00
2018-02-26T16:35:13.815Z,97728.00
2018-02-26T16:36:45.653Z,78496.00
2018-02-26T16:38:17.572Z,87712.00
2018-02-26T16:39:49.300Z,92288.00
2018-02-26T16:41:21.127Z,55680.00
2018-02-26T16:42:52.955Z,40064.00
2018-02-26T16:44:24.788Z,42816.00
2018-02-26T16:45:56.715Z,44064.00
2018-02-26T16:47:28.440Z,49792.00
2018-02-26T16:49:00.276Z,44992.00
2018-02-26T16:50:32.096Z,37408.00
2018-02-26T16:52:03.921Z,31424.00
2018-02-26T16:53:35.749Z,29664.00
2018-02-26T16:55:07.574Z,29280.00
2018-02-26T16:56:40.414Z,24096.00
2018-02-26T16:58:11.226Z,20064.00
2018-02-26T16:59:43.052Z,19744.00
2018-02-26T17:01:14.893Z,21216.00
2018-02-26T17:02:46.703Z,25024.00
2018-02-26T17:04:18.548Z,28768.00
2018-02-26T17:05:50.353Z,33056.00
2018-02-26T17:07:22.178Z,35520.00
2018-02-26T17:08:54.003Z,30048.00
2018-02-26T17:10:25.836Z,25248.00
2018-02-26T17:11:57.688Z,22400.00
2018-02-26T17:13:29.479Z,20640.00
2018-02-26T17:15:01.416Z,19168.00
2018-02-26T17:16:33.125Z,16420.00
2018-02-26T17:18:04.956Z,13172.00
2018-02-26T17:19:36.774Z,11252.00
2018-02-26T17:21:08.598Z,10544.00
2018-02-26T17:22:40.420Z,9668.00
2018-02-26T17:24:12.245Z,8288.00
2018-02-26T17:25:44.067Z,7320.00
2018-02-26T17:27:15.891Z,7812.00
2018-02-26T17:28:47.723Z,11420.00
2018-02-26T17:30:19.536Z,17920.00
2018-02-26T17:31:51.358Z,25632.00
2018-02-26T17:33:23.279Z,24480.00
2018-02-26T17:34:55.001Z,22976.00
2018-02-26T17:36:26.836Z,24672.00
2018-02-26T17:37:58.663Z,31936.00
2018-02-26T17:39:30.470Z,66752.00
2018-02-26T17:41:02.300Z,28736.00
2018-02-26T17:42:34.112Z,24512.00
2018-02-26T17:44:05.934Z,24352.00
2018-02-26T17:45:37.963Z,24032.00
2018-02-26T17:47:09.580Z,23808.00
2018-02-26T17:48:41.402Z,25984.00
2018-02-26T17:50:13.231Z,29120.00
2018-02-26T17:51:45.148Z,42016.00
2018-02-26T17:53:16.872Z,49024.00
2018-02-26T17:54:48.692Z,41120.00
2018-02-26T17:56:20.515Z,34848.00
2018-02-26T17:57:52.439Z,29792.00
2018-02-26T17:59:24.163Z,35136.00
2018-02-26T18:00:55.990Z,35136.00
2018-02-26T18:02:27.811Z,30656.00
2018-02-26T18:03:59.732Z,26784.00
2018-02-26T18:05:31.458Z,21280.00
2018-02-26T18:07:03.280Z,15976.00
2018-02-26T18:08:35.118Z,12872.00
2018-02-26T18:10:07.036Z,10556.00
2018-02-26T18:11:38.750Z,6604.00
2018-02-26T18:13:10.573Z,3384.00
2018-02-26T18:14:42.395Z,2076.00
2018-02-26T18:16:14.214Z,1644.00
2018-02-26T18:17:46.038Z,896.00
2018-02-26T18:19:17.857Z,572.00
2018-02-26T18:20:49.679Z,408.00
2018-02-26T18:22:21.651Z,564.00
2018-02-26T18:23:53.316Z,1028.00
2018-02-26T18:25:25.137Z,1288.00
2018-02-26T18:26:56.955Z,1712.00
2018-02-26T18:28:28.871Z,2060.00
2018-02-26T18:59:16.480Z,11476.00
2018-02-26T19:00:48.388Z,11036.00
2018-02-26T19:02:20.104Z,10184.00
2018-02-26T19:03:51.919Z,8984.00
2018-02-26T19:05:23.734Z,7708.00
2018-02-26T19:06:55.547Z,6568.00
2018-02-26T19:08:27.363Z,5540.00
2018-02-26T19:09:59.179Z,4580.00
2018-02-26T19:11:30.998Z,4100.00
2018-02-26T19:13:02.809Z,4140.00
2018-02-26T19:14:34.623Z,4320.00
2018-02-26T19:16:06.441Z,4580.00
2018-02-26T19:17:38.256Z,4968.00
2018-02-26T19:19:10.171Z,5556.00
2018-02-26T19:20:41.885Z,6184.00
2018-02-26T19:22:13.702Z,6572.00
2018-02-26T19:23:45.520Z,6328.00
2018-02-26T19:25:17.333Z,5280.00
2018-02-26T19:26:49.185Z,4324.00
2018-02-26T19:28:20.963Z,3592.00
2018-02-26T19:29:52.778Z,2908.00
2018-02-26T19:31:24.595Z,1932.00
2018-02-26T19:32:56.410Z,1252.00
2018-02-26T19:34:28.227Z,936.00
2018-02-26T19:36:00.043Z,832.00
2018-02-26T19:37:31.958Z,908.00
2018-02-26T19:39:03.675Z,856.00
2018-02-26T19:40:35.500Z,808.00
2018-02-26T19:42:07.308Z,808.00
2018-02-26T19:43:39.136Z,824.00
2018-02-26T19:45:10.938Z,576.00
2018-02-26T19:46:42.756Z,336.00
2018-02-26T19:48:14.572Z,212.00
2018-02-26T19:49:46.387Z,180.00